sensor_id;sensor_type;location;lat;lon;timestamp;P1;durP1;ratioP1;P2;durP2;ratioP2
82628;SDS011;72298;49.640;20.652;2023-11-19T00:01:10;22.95;;;9.95;;
82628;SDS011;72298;49.640;20.652;2023-11-19T00:03:36;17.73;;;8.40;;
82628;SDS011;72298;49.640;20.652;2023-11-19T00:06:02;17.92;;;9.27;;
82628;SDS011;72298;49.640;20.652;2023-11-19T00:10:55;18.15;;;8.68;;
82628;SDS011;72298;49.640;20.652;2023-11-19T00:13:20;26.55;;;8.98;;
82628;SDS011;72298;49.640;20.652;2023-11-19T00:15:46;20.10;;;9.02;;
82628;SDS011;72298;49.640;20.652;2023-11-19T00:18:12;22.25;;;9.43;;
82628;SDS011;72298;49.640;20.652;2023-11-19T00:20:39;20.75;;;9.85;;
82628;SDS011;72298;49.640;20.652;2023-11-19T00:23:05;22.73;;;9.50;;
82628;SDS011;72298;49.640;20.652;2023-11-19T00:25:30;21.65;;;10.30;;
82628;SDS011;72298;49.640;20.652;2023-11-19T00:27:56;19.60;;;9.25;;
82628;SDS011;72298;49.640;20.652;2023-11-19T00:30:22;22.80;;;10.25;;
82628;SDS011;72298;49.640;20.652;2023-11-19T00:32:47;22.20;;;9.73;;
82628;SDS011;72298;49.640;20.652;2023-11-19T00:35:14;19.88;;;9.48;;
82628;SDS011;72298;49.640;20.652;2023-11-19T00:37:39;20.20;;;9.68;;
82628;SDS011;72298;49.640;20.652;2023-11-19T00:40:05;22.92;;;10.48;;
82628;SDS011;72298;49.640;20.652;2023-11-19T00:42:31;28.73;;;12.27;;
82628;SDS011;72298;49.640;20.652;2023-11-19T00:44:57;25.80;;;12.80;;
82628;SDS011;72298;49.640;20.652;2023-11-19T00:47:23;32.38;;;13.77;;
82628;SDS011;72298;49.640;20.652;2023-11-19T00:49:48;24.00;;;11.65;;
82628;SDS011;72298;49.640;20.652;2023-11-19T00:52:18;24.92;;;11.07;;
82628;SDS011;72298;49.640;20.652;2023-11-19T00:54:43;25.20;;;11.38;;
82628;SDS011;72298;49.640;20.652;2023-11-19T00:57:09;30.67;;;12.68;;
82628;SDS011;72298;49.640;20.652;2023-11-19T00:59:35;24.30;;;10.40;;
82628;SDS011;72298;49.640;20.652;2023-11-19T01:02:01;30.92;;;12.63;;
82628;SDS011;72298;49.640;20.652;2023-11-19T01:04:37;30.77;;;12.15;;
82628;SDS011;72298;49.640;20.652;2023-11-19T01:07:03;25.40;;;11.65;;
82628;SDS011;72298;49.640;20.652;2023-11-19T01:09:32;26.63;;;12.73;;
82628;SDS011;72298;49.640;20.652;2023-11-19T01:12:00;29.63;;;12.90;;
82628;SDS011;72298;49.640;20.652;2023-11-19T01:14:26;26.65;;;12.60;;
82628;SDS011;72298;49.640;20.652;2023-11-19T01:16:52;25.13;;;11.55;;
82628;SDS011;72298;49.640;20.652;2023-11-19T01:19:19;27.48;;;13.50;;
82628;SDS011;72298;49.640;20.652;2023-11-19T01:21:46;29.63;;;12.55;;
82628;SDS011;72298;49.640;20.652;2023-11-19T01:24:12;27.40;;;13.10;;
82628;SDS011;72298;49.640;20.652;2023-11-19T01:26:39;28.25;;;13.45;;
82628;SDS011;72298;49.640;20.652;2023-11-19T01:29:10;29.92;;;12.68;;
82628;SDS011;72298;49.640;20.652;2023-11-19T01:31:39;30.48;;;12.32;;
82628;SDS011;72298;49.640;20.652;2023-11-19T01:34:05;28.23;;;12.70;;
82628;SDS011;72298;49.640;20.652;2023-11-19T01:36:31;27.65;;;11.52;;
82628;SDS011;72298;49.640;20.652;2023-11-19T01:38:56;27.13;;;11.32;;
82628;SDS011;72298;49.640;20.652;2023-11-19T01:41:22;27.13;;;13.18;;
82628;SDS011;72298;49.640;20.652;2023-11-19T01:43:48;30.92;;;13.23;;
82628;SDS011;72298;49.640;20.652;2023-11-19T01:46:13;27.88;;;11.73;;
82628;SDS011;72298;49.640;20.652;2023-11-19T01:48:40;24.08;;;11.57;;
82628;SDS011;72298;49.640;20.652;2023-11-19T01:51:08;33.28;;;13.00;;
82628;SDS011;72298;49.640;20.652;2023-11-19T01:53:35;26.90;;;11.82;;
82628;SDS011;72298;49.640;20.652;2023-11-19T01:56:02;28.45;;;12.13;;
82628;SDS011;72298;49.640;20.652;2023-11-19T01:58:29;28.00;;;12.38;;
82628;SDS011;72298;49.640;20.652;2023-11-19T02:00:55;26.70;;;10.80;;
82628;SDS011;72298;49.640;20.652;2023-11-19T02:03:21;27.65;;;12.80;;
82628;SDS011;72298;49.640;20.652;2023-11-19T02:05:48;28.17;;;14.07;;
82628;SDS011;72298;49.640;20.652;2023-11-19T02:08:16;32.30;;;14.55;;
82628;SDS011;72298;49.640;20.652;2023-11-19T02:10:41;26.70;;;12.40;;
82628;SDS011;72298;49.640;20.652;2023-11-19T02:13:08;30.08;;;12.65;;
82628;SDS011;72298;49.640;20.652;2023-11-19T02:15:35;31.42;;;13.70;;
82628;SDS011;72298;49.640;20.652;2023-11-19T02:20:49;32.95;;;15.13;;
82628;SDS011;72298;49.640;20.652;2023-11-19T02:23:16;29.83;;;13.27;;
82628;SDS011;72298;49.640;20.652;2023-11-19T02:25:42;26.38;;;12.80;;
82628;SDS011;72298;49.640;20.652;2023-11-19T02:28:08;35.08;;;13.52;;
82628;SDS011;72298;49.640;20.652;2023-11-19T02:30:37;32.92;;;13.98;;
82628;SDS011;72298;49.640;20.652;2023-11-19T02:33:03;27.25;;;12.82;;
82628;SDS011;72298;49.640;20.652;2023-11-19T02:35:31;27.52;;;12.40;;
82628;SDS011;72298;49.640;20.652;2023-11-19T02:37:57;26.63;;;12.93;;
82628;SDS011;72298;49.640;20.652;2023-11-19T02:40:24;26.77;;;11.85;;
82628;SDS011;72298;49.640;20.652;2023-11-19T02:42:50;24.33;;;12.25;;
82628;SDS011;72298;49.640;20.652;2023-11-19T02:45:16;23.67;;;11.00;;
82628;SDS011;72298;49.640;20.652;2023-11-19T02:47:42;21.67;;;10.23;;
82628;SDS011;72298;49.640;20.652;2023-11-19T02:50:11;24.70;;;10.68;;
82628;SDS011;72298;49.640;20.652;2023-11-19T02:52:40;26.38;;;11.18;;
82628;SDS011;72298;49.640;20.652;2023-11-19T02:55:06;25.40;;;13.02;;
82628;SDS011;72298;49.640;20.652;2023-11-19T02:57:38;25.52;;;10.27;;
82628;SDS011;72298;49.640;20.652;2023-11-19T03:02:40;15.65;;;7.70;;
82628;SDS011;72298;49.640;20.652;2023-11-19T03:05:15;21.40;;;8.48;;
82628;SDS011;72298;49.640;20.652;2023-11-19T03:07:42;17.70;;;9.63;;
82628;SDS011;72298;49.640;20.652;2023-11-19T03:10:11;18.52;;;10.40;;
82628;SDS011;72298;49.640;20.652;2023-11-19T03:12:39;18.48;;;10.10;;
82628;SDS011;72298;49.640;20.652;2023-11-19T03:15:09;21.25;;;9.68;;
82628;SDS011;72298;49.640;20.652;2023-11-19T03:17:38;20.23;;;8.18;;
82628;SDS011;72298;49.640;20.652;2023-11-19T03:20:05;18.35;;;8.98;;
82628;SDS011;72298;49.640;20.652;2023-11-19T03:22:32;17.50;;;8.05;;
82628;SDS011;72298;49.640;20.652;2023-11-19T03:24:59;16.08;;;8.38;;
82628;SDS011;72298;49.640;20.652;2023-11-19T03:27:25;18.52;;;9.32;;
82628;SDS011;72298;49.640;20.652;2023-11-19T03:29:50;16.42;;;8.07;;
82628;SDS011;72298;49.640;20.652;2023-11-19T03:32:16;19.70;;;7.72;;
82628;SDS011;72298;49.640;20.652;2023-11-19T03:34:42;18.38;;;8.65;;
82628;SDS011;72298;49.640;20.652;2023-11-19T03:37:07;15.18;;;7.30;;
82628;SDS011;72298;49.640;20.652;2023-11-19T03:39:34;15.65;;;7.95;;
82628;SDS011;72298;49.640;20.652;2023-11-19T03:41:59;19.25;;;9.32;;
82628;SDS011;72298;49.640;20.652;2023-11-19T03:44:25;14.35;;;7.47;;
82628;SDS011;72298;49.640;20.652;2023-11-19T03:46:52;22.67;;;8.90;;
82628;SDS011;72298;49.640;20.652;2023-11-19T03:49:17;20.58;;;9.80;;
82628;SDS011;72298;49.640;20.652;2023-11-19T03:51:43;18.35;;;8.10;;
82628;SDS011;72298;49.640;20.652;2023-11-19T03:54:09;17.38;;;9.20;;
82628;SDS011;72298;49.640;20.652;2023-11-19T03:56:34;23.85;;;9.20;;
82628;SDS011;72298;49.640;20.652;2023-11-19T03:59:00;20.52;;;9.43;;
82628;SDS011;72298;49.640;20.652;2023-11-19T04:01:26;22.90;;;9.85;;
82628;SDS011;72298;49.640;20.652;2023-11-19T04:03:52;19.40;;;9.95;;
82628;SDS011;72298;49.640;20.652;2023-11-19T04:06:17;22.13;;;10.07;;
82628;SDS011;72298;49.640;20.652;2023-11-19T04:08:43;23.85;;;11.50;;
82628;SDS011;72298;49.640;20.652;2023-11-19T04:11:10;26.10;;;11.93;;
82628;SDS011;72298;49.640;20.652;2023-11-19T04:13:35;23.58;;;12.00;;
82628;SDS011;72298;49.640;20.652;2023-11-19T04:16:01;25.73;;;12.00;;
82628;SDS011;72298;49.640;20.652;2023-11-19T04:18:27;29.33;;;12.48;;
82628;SDS011;72298;49.640;20.652;2023-11-19T04:20:53;26.50;;;10.73;;
82628;SDS011;72298;49.640;20.652;2023-11-19T04:23:18;28.67;;;12.95;;
82628;SDS011;72298;49.640;20.652;2023-11-19T04:25:44;28.13;;;11.82;;
82628;SDS011;72298;49.640;20.652;2023-11-19T04:28:09;24.08;;;11.55;;
82628;SDS011;72298;49.640;20.652;2023-11-19T04:30:35;30.25;;;12.35;;
82628;SDS011;72298;49.640;20.652;2023-11-19T04:33:02;26.95;;;12.00;;
82628;SDS011;72298;49.640;20.652;2023-11-19T04:35:28;28.50;;;12.57;;
82628;SDS011;72298;49.640;20.652;2023-11-19T04:37:54;28.88;;;12.65;;
82628;SDS011;72298;49.640;20.652;2023-11-19T04:40:22;23.95;;;12.55;;
82628;SDS011;72298;49.640;20.652;2023-11-19T04:42:48;27.80;;;12.93;;
82628;SDS011;72298;49.640;20.652;2023-11-19T04:45:14;28.85;;;13.70;;
82628;SDS011;72298;49.640;20.652;2023-11-19T04:47:41;28.88;;;12.25;;
82628;SDS011;72298;49.640;20.652;2023-11-19T04:50:10;24.60;;;11.55;;
82628;SDS011;72298;49.640;20.652;2023-11-19T04:52:38;26.30;;;12.00;;
82628;SDS011;72298;49.640;20.652;2023-11-19T04:55:10;33.15;;;14.82;;
82628;SDS011;72298;49.640;20.652;2023-11-19T04:57:37;29.65;;;12.43;;
82628;SDS011;72298;49.640;20.652;2023-11-19T05:00:03;31.20;;;13.30;;
82628;SDS011;72298;49.640;20.652;2023-11-19T05:02:30;28.83;;;13.23;;
82628;SDS011;72298;49.640;20.652;2023-11-19T05:04:56;22.13;;;11.18;;
82628;SDS011;72298;49.640;20.652;2023-11-19T05:07:22;17.88;;;9.85;;
82628;SDS011;72298;49.640;20.652;2023-11-19T05:09:47;20.10;;;10.27;;
82628;SDS011;72298;49.640;20.652;2023-11-19T05:12:13;23.38;;;10.38;;
82628;SDS011;72298;49.640;20.652;2023-11-19T05:14:39;23.25;;;10.27;;
82628;SDS011;72298;49.640;20.652;2023-11-19T05:17:04;27.77;;;11.20;;
82628;SDS011;72298;49.640;20.652;2023-11-19T05:19:30;24.65;;;11.55;;
82628;SDS011;72298;49.640;20.652;2023-11-19T05:21:56;25.33;;;11.32;;
82628;SDS011;72298;49.640;20.652;2023-11-19T05:24:22;24.10;;;10.50;;
82628;SDS011;72298;49.640;20.652;2023-11-19T05:26:48;24.23;;;10.27;;
82628;SDS011;72298;49.640;20.652;2023-11-19T05:29:16;28.45;;;11.25;;
82628;SDS011;72298;49.640;20.652;2023-11-19T05:31:42;28.05;;;11.93;;
82628;SDS011;72298;49.640;20.652;2023-11-19T05:34:08;22.20;;;10.10;;
82628;SDS011;72298;49.640;20.652;2023-11-19T05:36:33;21.75;;;9.90;;
82628;SDS011;72298;49.640;20.652;2023-11-19T05:38:59;19.23;;;9.63;;
82628;SDS011;72298;49.640;20.652;2023-11-19T05:41:24;18.10;;;9.80;;
82628;SDS011;72298;49.640;20.652;2023-11-19T05:43:50;22.13;;;9.43;;
82628;SDS011;72298;49.640;20.652;2023-11-19T05:46:16;18.98;;;8.57;;
82628;SDS011;72298;49.640;20.652;2023-11-19T05:48:42;17.83;;;8.48;;
82628;SDS011;72298;49.640;20.652;2023-11-19T05:51:08;19.10;;;7.75;;
82628;SDS011;72298;49.640;20.652;2023-11-19T05:53:33;16.25;;;8.30;;
82628;SDS011;72298;49.640;20.652;2023-11-19T05:55:59;16.40;;;8.30;;
82628;SDS011;72298;49.640;20.652;2023-11-19T05:58:29;18.20;;;7.85;;
82628;SDS011;72298;49.640;20.652;2023-11-19T06:00:55;20.38;;;8.32;;
82628;SDS011;72298;49.640;20.652;2023-11-19T06:03:21;21.50;;;9.52;;
82628;SDS011;72298;49.640;20.652;2023-11-19T06:05:47;18.60;;;9.00;;
82628;SDS011;72298;49.640;20.652;2023-11-19T06:08:14;19.45;;;9.23;;
82628;SDS011;72298;49.640;20.652;2023-11-19T06:10:43;20.75;;;8.75;;
82628;SDS011;72298;49.640;20.652;2023-11-19T06:13:11;23.50;;;9.48;;
82628;SDS011;72298;49.640;20.652;2023-11-19T06:15:44;22.17;;;9.77;;
82628;SDS011;72298;49.640;20.652;2023-11-19T06:18:10;19.05;;;9.38;;
82628;SDS011;72298;49.640;20.652;2023-11-19T06:23:03;14.88;;;7.38;;
82628;SDS011;72298;49.640;20.652;2023-11-19T06:25:28;17.85;;;7.78;;
82628;SDS011;72298;49.640;20.652;2023-11-19T06:27:54;14.25;;;7.50;;
82628;SDS011;72298;49.640;20.652;2023-11-19T06:30:19;16.65;;;7.32;;
82628;SDS011;72298;49.640;20.652;2023-11-19T06:32:45;16.52;;;7.47;;
82628;SDS011;72298;49.640;20.652;2023-11-19T06:35:12;12.98;;;6.32;;
82628;SDS011;72298;49.640;20.652;2023-11-19T06:37:39;16.88;;;7.13;;
82628;SDS011;72298;49.640;20.652;2023-11-19T06:40:05;14.30;;;6.70;;
82628;SDS011;72298;49.640;20.652;2023-11-19T06:42:32;12.27;;;6.30;;
82628;SDS011;72298;49.640;20.652;2023-11-19T06:44:58;12.07;;;6.18;;
82628;SDS011;72298;49.640;20.652;2023-11-19T06:47:27;16.23;;;7.35;;
82628;SDS011;72298;49.640;20.652;2023-11-19T06:49:53;9.82;;;5.57;;
82628;SDS011;72298;49.640;20.652;2023-11-19T06:52:20;17.60;;;7.22;;
82628;SDS011;72298;49.640;20.652;2023-11-19T06:54:46;17.88;;;8.70;;
82628;SDS011;72298;49.640;20.652;2023-11-19T06:57:12;19.60;;;8.23;;
82628;SDS011;72298;49.640;20.652;2023-11-19T06:59:37;18.10;;;9.00;;
82628;SDS011;72298;49.640;20.652;2023-11-19T07:02:03;24.52;;;10.82;;
82628;SDS011;72298;49.640;20.652;2023-11-19T07:04:30;18.02;;;9.55;;
82628;SDS011;72298;49.640;20.652;2023-11-19T07:06:57;28.52;;;11.75;;
82628;SDS011;72298;49.640;20.652;2023-11-19T07:09:23;26.20;;;10.80;;
82628;SDS011;72298;49.640;20.652;2023-11-19T07:11:48;28.98;;;10.90;;
82628;SDS011;72298;49.640;20.652;2023-11-19T07:14:17;23.65;;;11.02;;
82628;SDS011;72298;49.640;20.652;2023-11-19T07:16:43;28.33;;;11.48;;
82628;SDS011;72298;49.640;20.652;2023-11-19T07:19:09;24.63;;;10.93;;
82628;SDS011;72298;49.640;20.652;2023-11-19T07:21:35;22.17;;;8.75;;
82628;SDS011;72298;49.640;20.652;2023-11-19T07:24:04;18.88;;;9.95;;
82628;SDS011;72298;49.640;20.652;2023-11-19T07:26:31;33.65;;;14.73;;
82628;SDS011;72298;49.640;20.652;2023-11-19T07:28:57;23.65;;;10.13;;
82628;SDS011;72298;49.640;20.652;2023-11-19T07:31:23;37.70;;;15.15;;
82628;SDS011;72298;49.640;20.652;2023-11-19T07:33:49;36.80;;;14.70;;
82628;SDS011;72298;49.640;20.652;2023-11-19T07:36:15;26.50;;;13.30;;
82628;SDS011;72298;49.640;20.652;2023-11-19T07:38:41;24.83;;;12.13;;
82628;SDS011;72298;49.640;20.652;2023-11-19T07:41:07;20.25;;;9.65;;
82628;SDS011;72298;49.640;20.652;2023-11-19T07:43:38;11.35;;;5.90;;
82628;SDS011;72298;49.640;20.652;2023-11-19T07:46:05;14.50;;;6.50;;
82628;SDS011;72298;49.640;20.652;2023-11-19T07:48:33;9.90;;;5.90;;
82628;SDS011;72298;49.640;20.652;2023-11-19T07:51:00;13.00;;;5.78;;
82628;SDS011;72298;49.640;20.652;2023-11-19T07:53:25;15.75;;;6.95;;
82628;SDS011;72298;49.640;20.652;2023-11-19T07:55:51;12.48;;;6.97;;
82628;SDS011;72298;49.640;20.652;2023-11-19T07:58:16;11.57;;;6.13;;
82628;SDS011;72298;49.640;20.652;2023-11-19T08:00:43;14.63;;;6.45;;
82628;SDS011;72298;49.640;20.652;2023-11-19T08:03:08;11.20;;;6.43;;
82628;SDS011;72298;49.640;20.652;2023-11-19T08:05:35;14.75;;;6.32;;
82628;SDS011;72298;49.640;20.652;2023-11-19T08:08:01;12.88;;;6.47;;
82628;SDS011;72298;49.640;20.652;2023-11-19T08:10:27;10.40;;;5.93;;
82628;SDS011;72298;49.640;20.652;2023-11-19T08:12:52;11.52;;;6.20;;
82628;SDS011;72298;49.640;20.652;2023-11-19T08:15:18;13.85;;;5.55;;
82628;SDS011;72298;49.640;20.652;2023-11-19T08:17:43;11.20;;;6.75;;
82628;SDS011;72298;49.640;20.652;2023-11-19T08:20:09;8.95;;;4.95;;
82628;SDS011;72298;49.640;20.652;2023-11-19T08:22:38;13.80;;;6.43;;
82628;SDS011;72298;49.640;20.652;2023-11-19T08:25:05;12.70;;;6.50;;
82628;SDS011;72298;49.640;20.652;2023-11-19T08:27:31;18.42;;;7.60;;
82628;SDS011;72298;49.640;20.652;2023-11-19T08:29:57;15.32;;;7.15;;
82628;SDS011;72298;49.640;20.652;2023-11-19T08:32:23;12.48;;;6.75;;
82628;SDS011;72298;49.640;20.652;2023-11-19T08:34:52;19.65;;;8.02;;
82628;SDS011;72298;49.640;20.652;2023-11-19T08:37:18;11.18;;;7.03;;
82628;SDS011;72298;49.640;20.652;2023-11-19T08:39:50;12.15;;;6.40;;
82628;SDS011;72298;49.640;20.652;2023-11-19T08:42:16;14.85;;;6.10;;
82628;SDS011;72298;49.640;20.652;2023-11-19T08:44:42;14.82;;;7.00;;
82628;SDS011;72298;49.640;20.652;2023-11-19T08:47:09;13.85;;;6.10;;
82628;SDS011;72298;49.640;20.652;2023-11-19T08:49:36;16.95;;;7.28;;
82628;SDS011;72298;49.640;20.652;2023-11-19T08:52:02;14.82;;;7.35;;
82628;SDS011;72298;49.640;20.652;2023-11-19T08:54:27;11.48;;;6.10;;
82628;SDS011;72298;49.640;20.652;2023-11-19T08:56:53;12.07;;;6.97;;
82628;SDS011;72298;49.640;20.652;2023-11-19T08:59:19;13.93;;;6.85;;
82628;SDS011;72298;49.640;20.652;2023-11-19T09:01:44;14.10;;;6.90;;
82628;SDS011;72298;49.640;20.652;2023-11-19T09:04:10;11.65;;;6.38;;
82628;SDS011;72298;49.640;20.652;2023-11-19T09:06:36;14.43;;;6.40;;
82628;SDS011;72298;49.640;20.652;2023-11-19T09:09:02;14.05;;;6.38;;
82628;SDS011;72298;49.640;20.652;2023-11-19T09:11:30;13.40;;;6.68;;
82628;SDS011;72298;49.640;20.652;2023-11-19T09:13:56;16.00;;;6.75;;
82628;SDS011;72298;49.640;20.652;2023-11-19T09:16:22;15.73;;;6.32;;
82628;SDS011;72298;49.640;20.652;2023-11-19T09:18:47;14.63;;;7.10;;
82628;SDS011;72298;49.640;20.652;2023-11-19T09:21:13;14.20;;;7.13;;
82628;SDS011;72298;49.640;20.652;2023-11-19T09:23:39;10.70;;;5.45;;
82628;SDS011;72298;49.640;20.652;2023-11-19T09:26:05;9.55;;;5.32;;
82628;SDS011;72298;49.640;20.652;2023-11-19T09:28:32;12.98;;;5.57;;
82628;SDS011;72298;49.640;20.652;2023-11-19T09:31:12;11.05;;;5.45;;
82628;SDS011;72298;49.640;20.652;2023-11-19T09:33:39;9.02;;;5.25;;
82628;SDS011;72298;49.640;20.652;2023-11-19T09:36:16;9.93;;;5.45;;
82628;SDS011;72298;49.640;20.652;2023-11-19T09:38:43;12.20;;;5.40;;
82628;SDS011;72298;49.640;20.652;2023-11-19T09:41:10;9.23;;;5.38;;
82628;SDS011;72298;49.640;20.652;2023-11-19T09:43:41;8.85;;;4.63;;
82628;SDS011;72298;49.640;20.652;2023-11-19T09:46:11;7.95;;;4.15;;
82628;SDS011;72298;49.640;20.652;2023-11-19T09:48:39;10.95;;;5.38;;
82628;SDS011;72298;49.640;20.652;2023-11-19T09:51:08;14.85;;;6.40;;
82628;SDS011;72298;49.640;20.652;2023-11-19T09:53:35;10.23;;;5.10;;
82628;SDS011;72298;49.640;20.652;2023-11-19T09:56:02;10.48;;;5.57;;
82628;SDS011;72298;49.640;20.652;2023-11-19T09:58:29;13.73;;;6.40;;
82628;SDS011;72298;49.640;20.652;2023-11-19T10:00:56;12.13;;;5.70;;
82628;SDS011;72298;49.640;20.652;2023-11-19T10:03:27;11.52;;;6.00;;
82628;SDS011;72298;49.640;20.652;2023-11-19T10:05:54;13.18;;;6.07;;
82628;SDS011;72298;49.640;20.652;2023-11-19T10:08:21;13.73;;;6.28;;
82628;SDS011;72298;49.640;20.652;2023-11-19T10:10:47;12.23;;;6.00;;
82628;SDS011;72298;49.640;20.652;2023-11-19T10:13:13;11.70;;;5.80;;
82628;SDS011;72298;49.640;20.652;2023-11-19T10:15:40;10.88;;;6.32;;
82628;SDS011;72298;49.640;20.652;2023-11-19T10:18:05;12.52;;;6.07;;
82628;SDS011;72298;49.640;20.652;2023-11-19T10:20:37;15.40;;;6.15;;
82628;SDS011;72298;49.640;20.652;2023-11-19T10:23:04;14.07;;;6.70;;
82628;SDS011;72298;49.640;20.652;2023-11-19T10:25:29;10.85;;;5.38;;
82628;SDS011;72298;49.640;20.652;2023-11-19T10:27:55;12.85;;;6.15;;
82628;SDS011;72298;49.640;20.652;2023-11-19T10:30:25;10.50;;;5.63;;
82628;SDS011;72298;49.640;20.652;2023-11-19T10:33:04;10.70;;;5.47;;
82628;SDS011;72298;49.640;20.652;2023-11-19T10:35:34;12.40;;;6.43;;
82628;SDS011;72298;49.640;20.652;2023-11-19T10:38:13;13.73;;;6.28;;
82628;SDS011;72298;49.640;20.652;2023-11-19T10:40:40;11.63;;;5.80;;
82628;SDS011;72298;49.640;20.652;2023-11-19T10:43:06;10.23;;;5.80;;
82628;SDS011;72298;49.640;20.652;2023-11-19T10:45:38;11.02;;;5.05;;
82628;SDS011;72298;49.640;20.652;2023-11-19T10:48:04;10.80;;;5.20;;
82628;SDS011;72298;49.640;20.652;2023-11-19T10:50:34;10.45;;;5.78;;
82628;SDS011;72298;49.640;20.652;2023-11-19T10:53:00;8.73;;;5.03;;
82628;SDS011;72298;49.640;20.652;2023-11-19T10:55:27;9.02;;;5.32;;
82628;SDS011;72298;49.640;20.652;2023-11-19T10:57:56;11.63;;;5.70;;
82628;SDS011;72298;49.640;20.652;2023-11-19T11:00:24;14.45;;;6.15;;
82628;SDS011;72298;49.640;20.652;2023-11-19T11:02:52;11.07;;;5.72;;
82628;SDS011;72298;49.640;20.652;2023-11-19T11:05:21;11.90;;;5.50;;
82628;SDS011;72298;49.640;20.652;2023-11-19T11:07:47;11.07;;;5.95;;
82628;SDS011;72298;49.640;20.652;2023-11-19T11:10:14;12.52;;;6.00;;
82628;SDS011;72298;49.640;20.652;2023-11-19T11:12:41;12.95;;;5.70;;
82628;SDS011;72298;49.640;20.652;2023-11-19T11:15:10;15.77;;;5.93;;
82628;SDS011;72298;49.640;20.652;2023-11-19T11:17:39;10.27;;;6.05;;
82628;SDS011;72298;49.640;20.652;2023-11-19T11:20:08;13.90;;;7.30;;
82628;SDS011;72298;49.640;20.652;2023-11-19T11:22:48;13.75;;;6.97;;
82628;SDS011;72298;49.640;20.652;2023-11-19T11:31:25;14.68;;;7.38;;
82628;SDS011;72298;49.640;20.652;2023-11-19T11:37:39;18.23;;;7.00;;
82628;SDS011;72298;49.640;20.652;2023-11-19T11:39:42;14.82;;;7.38;;
82628;SDS011;72298;49.640;20.652;2023-11-19T11:50:09;11.60;;;6.25;;
82628;SDS011;72298;49.640;20.652;2023-11-19T11:57:51;12.63;;;6.40;;
82628;SDS011;72298;49.640;20.652;2023-11-19T12:03:01;11.50;;;5.55;;
82628;SDS011;72298;49.640;20.652;2023-11-19T12:05:27;12.98;;;6.05;;
82628;SDS011;72298;49.640;20.652;2023-11-19T12:07:55;12.98;;;6.65;;
82628;SDS011;72298;49.640;20.652;2023-11-19T12:10:49;15.43;;;6.13;;
82628;SDS011;72298;49.640;20.652;2023-11-19T12:13:15;14.93;;;6.68;;
82628;SDS011;72298;49.640;20.652;2023-11-19T12:18:26;14.60;;;6.43;;
82628;SDS011;72298;49.640;20.652;2023-11-19T12:20:52;15.25;;;6.80;;
82628;SDS011;72298;49.640;20.652;2023-11-19T12:23:18;13.77;;;6.05;;
82628;SDS011;72298;49.640;20.652;2023-11-19T12:25:44;15.70;;;5.93;;
82628;SDS011;72298;49.640;20.652;2023-11-19T12:28:13;16.05;;;6.57;;
82628;SDS011;72298;49.640;20.652;2023-11-19T12:30:39;11.48;;;5.90;;
82628;SDS011;72298;49.640;20.652;2023-11-19T12:33:08;12.32;;;6.72;;
82628;SDS011;72298;49.640;20.652;2023-11-19T12:35:47;14.60;;;6.55;;
82628;SDS011;72298;49.640;20.652;2023-11-19T12:38:20;12.95;;;6.45;;
82628;SDS011;72298;49.640;20.652;2023-11-19T12:40:46;14.45;;;6.43;;
82628;SDS011;72298;49.640;20.652;2023-11-19T12:43:21;10.35;;;5.90;;
82628;SDS011;72298;49.640;20.652;2023-11-19T12:45:47;13.38;;;6.05;;
82628;SDS011;72298;49.640;20.652;2023-11-19T12:48:13;14.20;;;6.55;;
82628;SDS011;72298;49.640;20.652;2023-11-19T12:53:23;17.77;;;8.32;;
82628;SDS011;72298;49.640;20.652;2023-11-19T12:55:50;15.93;;;7.28;;
82628;SDS011;72298;49.640;20.652;2023-11-19T12:58:32;15.65;;;6.32;;
82628;SDS011;72298;49.640;20.652;2023-11-19T13:03:35;13.02;;;7.20;;
82628;SDS011;72298;49.640;20.652;2023-11-19T13:06:06;14.27;;;6.38;;
82628;SDS011;72298;49.640;20.652;2023-11-19T13:08:49;14.73;;;6.68;;
82628;SDS011;72298;49.640;20.652;2023-11-19T13:11:30;16.33;;;7.10;;
82628;SDS011;72298;49.640;20.652;2023-11-19T13:16:35;18.30;;;7.65;;
82628;SDS011;72298;49.640;20.652;2023-11-19T13:19:01;13.80;;;7.95;;
82628;SDS011;72298;49.640;20.652;2023-11-19T13:21:28;18.52;;;8.40;;
82628;SDS011;72298;49.640;20.652;2023-11-19T13:23:55;13.25;;;6.32;;
82628;SDS011;72298;49.640;20.652;2023-11-19T13:26:21;14.20;;;7.38;;
82628;SDS011;72298;49.640;20.652;2023-11-19T13:28:47;21.70;;;8.13;;
82628;SDS011;72298;49.640;20.652;2023-11-19T13:31:12;17.08;;;7.18;;
82628;SDS011;72298;49.640;20.652;2023-11-19T13:33:39;14.52;;;7.65;;
82628;SDS011;72298;49.640;20.652;2023-11-19T13:36:05;22.50;;;8.82;;
82628;SDS011;72298;49.640;20.652;2023-11-19T13:38:33;17.48;;;8.57;;
82628;SDS011;72298;49.640;20.652;2023-11-19T13:43:26;12.80;;;6.35;;
82628;SDS011;72298;49.640;20.652;2023-11-19T13:45:54;17.73;;;8.02;;
82628;SDS011;72298;49.640;20.652;2023-11-19T13:48:20;15.13;;;7.43;;
82628;SDS011;72298;49.640;20.652;2023-11-19T13:50:46;17.58;;;8.40;;
82628;SDS011;72298;49.640;20.652;2023-11-19T13:53:11;14.48;;;7.90;;
82628;SDS011;72298;49.640;20.652;2023-11-19T13:55:37;21.83;;;9.48;;
82628;SDS011;72298;49.640;20.652;2023-11-19T13:58:03;22.00;;;9.00;;
82628;SDS011;72298;49.640;20.652;2023-11-19T14:00:29;22.77;;;9.95;;
82628;SDS011;72298;49.640;20.652;2023-11-19T14:02:54;18.02;;;8.77;;
82628;SDS011;72298;49.640;20.652;2023-11-19T14:05:20;20.15;;;9.40;;
82628;SDS011;72298;49.640;20.652;2023-11-19T14:07:46;17.58;;;8.70;;
82628;SDS011;72298;49.640;20.652;2023-11-19T14:10:15;19.23;;;8.60;;
82628;SDS011;72298;49.640;20.652;2023-11-19T14:12:41;19.08;;;8.77;;
82628;SDS011;72298;49.640;20.652;2023-11-19T14:15:07;16.48;;;9.30;;
82628;SDS011;72298;49.640;20.652;2023-11-19T14:17:35;17.40;;;8.55;;
82628;SDS011;72298;49.640;20.652;2023-11-19T14:20:04;23.67;;;10.32;;
82628;SDS011;72298;49.640;20.652;2023-11-19T14:25:10;21.90;;;8.43;;
82628;SDS011;72298;49.640;20.652;2023-11-19T14:27:39;23.60;;;10.23;;
82628;SDS011;72298;49.640;20.652;2023-11-19T14:30:06;22.58;;;10.68;;
82628;SDS011;72298;49.640;20.652;2023-11-19T14:32:35;22.60;;;10.85;;
82628;SDS011;72298;49.640;20.652;2023-11-19T14:35:01;24.38;;;12.45;;
82628;SDS011;72298;49.640;20.652;2023-11-19T14:37:26;24.80;;;11.00;;
82628;SDS011;72298;49.640;20.652;2023-11-19T14:39:52;22.88;;;11.00;;
82628;SDS011;72298;49.640;20.652;2023-11-19T14:42:18;21.65;;;9.98;;
82628;SDS011;72298;49.640;20.652;2023-11-19T14:44:43;19.50;;;8.35;;
82628;SDS011;72298;49.640;20.652;2023-11-19T14:47:10;20.27;;;10.27;;
82628;SDS011;72298;49.640;20.652;2023-11-19T14:49:36;16.80;;;8.02;;
82628;SDS011;72298;49.640;20.652;2023-11-19T14:52:04;19.10;;;8.73;;
82628;SDS011;72298;49.640;20.652;2023-11-19T14:54:30;14.98;;;8.23;;
82628;SDS011;72298;49.640;20.652;2023-11-19T14:56:56;16.00;;;6.97;;
82628;SDS011;72298;49.640;20.652;2023-11-19T14:59:22;15.60;;;7.32;;
82628;SDS011;72298;49.640;20.652;2023-11-19T15:01:48;14.60;;;7.85;;
82628;SDS011;72298;49.640;20.652;2023-11-19T15:04:13;15.57;;;8.68;;
82628;SDS011;72298;49.640;20.652;2023-11-19T15:06:39;12.88;;;7.78;;
82628;SDS011;72298;49.640;20.652;2023-11-19T15:09:05;15.68;;;7.75;;